Time,TemperatureF,DewpointF,PressureIn,WindDirection,WindDirectionDegrees,WindSpeedMPH,WindSpeedGustMPH,Humidity,HourlyPrecipIn,Conditions,Clouds,dailyrainin,SoftwareType,DateUTC
2016-07-28 00:00:00,52.4,51.0,29.92,SW,232,10.0,10.0,95,0.00,CLR,,0.00,WeatherDisplay:10.37,2016-07-28 07:00:00,
2016-07-28 00:05:00,52.4,51.0,29.92,WSW,238,11.0,11.0,95,0.00,CLR,,0.00,WeatherDisplay:10.37,2016-07-28 07:05:00,
2016-07-28 00:10:00,52.6,51.2,29.92,WSW,252,10.4,10.4,95,0.00,CLR,,0.00,WeatherDisplay:10.37,2016-07-28 07:10:00,
2016-07-28 00:15:00,52.6,51.2,29.92,West,276,10.4,10.4,95,0.00,CLR,,0.00,WeatherDisplay:10.37,2016-07-28 07:15:00,
2016-07-28 00:20:00,52.6,51.2,29.92,West,266,12.0,12.0,95,0.00,CLR,,0.00,WeatherDisplay:10.37,2016-07-28 07:20:00,
2016-07-28 00:25:00,52.5,51.1,29.92,West,281,11.5,11.5,95,0.00,CLR,,0.00,WeatherDisplay:10.37,2016-07-28 07:25:00,
2016-07-28 00:30:00,52.3,50.9,29.92,West,261,8.0,8.0,95,0.00,CLR,,0.00,WeatherDisplay:10.37,2016-07-28 07:30:00,
2016-07-28 00:35:00,52.3,50.9,29.92,West,259,8.1,8.1,95,0.00,CLR,,0.00,WeatherDisplay:10.37,2016-07-28 07:35:00,
2016-07-28 00:40:00,52.4,51.3,29.91,SW,217,8.1,8.1,96,0.00,CLR,,0.00,WeatherDisplay:10.37,2016-07-28 07:40:00,
2016-07-28 00:45:00,52.6,51.5,29.92,WSW,239,9.0,9.0,96,0.00,CLR,,0.00,WeatherDisplay:10.37,2016-07-28 07:45:00,
2016-07-28 00:50:00,52.6,51.2,29.92,WSW,244,10.0,10.0,95,0.00,CLR,,0.00,WeatherDisplay:10.37,2016-07-28 07:50:00,
2016-07-28 00:55:00,52.3,50.9,29.91,WSW,244,10.4,10.4,95,0.00,CLR,,0.00,WeatherDisplay:10.37,2016-07-28 07:55:00,
2016-07-28 01:00:00,52.3,51.2,29.91,WSW,246,11.5,11.5,96,0.00,CLR,,0.00,WeatherDisplay:10.37,2016-07-28 08:00:00,
2016-07-28 01:05:00,52.3,51.2,29.91,SW,227,11.0,11.0,96,0.00,CLR,,0.00,WeatherDisplay:10.37,2016-07-28 08:05:00,
2016-07-28 01:10:00,52.2,51.1,29.91,SW,230,9.2,9.2,96,0.00,CLR,,0.00,WeatherDisplay:10.37,2016-07-28 08:10:00,
2016-07-28 01:15:00,52.2,51.1,29.91,WSW,254,10.4,10.4,96,0.00,CLR,,0.00,WeatherDisplay:10.37,2016-07-28 08:15:00,
2016-07-28 01:20:00,52.2,51.1,29.91,SW,218,10.4,10.4,96,0.00,CLR,,0.00,WeatherDisplay:10.37,2016-07-28 08:20:00,
2016-07-28 01:25:00,52.3,51.2,29.91,SSW,205,6.0,6.0,96,0.00,CLR,,0.00,WeatherDisplay:10.37,2016-07-28 08:25:00,
2016-07-28 01:30:00,52.3,51.2,29.91,WSW,242,10.4,10.4,96,0.00,CLR,,0.00,WeatherDisplay:10.37,2016-07-28 08:30:00,
2016-07-28 01:35:00,52.2,51.1,29.91,WSW,246,8.1,8.1,96,0.00,CLR,,0.00,WeatherDisplay:10.37,2016-07-28 08:35:00,
2016-07-28 01:40:00,52.3,51.2,29.91,WSW,248,10.4,10.4,96,0.00,CLR,,0.00,WeatherDisplay:10.37,2016-07-28 08:40:00,
2016-07-28 01:45:00,52.3,51.2,29.91,SW,216,9.2,9.2,96,0.00,CLR,,0.00,WeatherDisplay:10.37,2016-07-28 08:45:00,
2016-07-28 01:50:00,52.3,51.2,29.90,SW,224,7.0,7.0,96,0.00,CLR,,0.00,WeatherDisplay:10.37,2016-07-28 08:50:00,
2016-07-28 01:55:00,52.4,51.3,29.91,West,263,10.4,10.4,96,0.00,CLR,,0.00,WeatherDisplay:10.37,2016-07-28 08:55:00,
2016-07-28 02:00:00,52.4,51.3,29.91,SW,233,10.4,10.4,96,0.00,CLR,,0.00,WeatherDisplay:10.37,2016-07-28 09:00:00,
2016-07-28 02:05:00,52.3,51.2,29.90,SW,229,8.1,8.1,96,0.00,CLR,,0.00,WeatherDisplay:10.37,2016-07-28 09:05:00,
2016-07-28 02:10:00,52.4,51.3,29.90,West,262,10.0,10.0,96,0.00,CLR,,0.00,WeatherDisplay:10.37,2016-07-28 09:10:00,
2016-07-28 02:15:00,52.4,51.3,29.90,SW,227,8.1,8.1,96,0.00,CLR,,0.00,WeatherDisplay:10.37,2016-07-28 09:15:00,
2016-07-28 02:20:00,52.4,51.3,29.90,WSW,257,8.1,8.1,96,0.00,CLR,,0.00,WeatherDisplay:10.37,2016-07-28 09:20:00,
2016-07-28 02:25:00,52.3,51.2,29.90,WSW,250,3.5,3.5,96,0.00,CLR,,0.00,WeatherDisplay:10.37,2016-07-28 09:25:00,
2016-07-28 02:30:00,52.4,51.3,29.90,SW,235,6.0,6.0,96,0.00,CLR,,0.00,WeatherDisplay:10.37,2016-07-28 09:30:00,
2016-07-28 02:35:00,52.5,51.4,29.90,SW,234,11.5,11.5,96,0.00,CLR,,0.00,WeatherDisplay:10.37,2016-07-28 09:35:00,
2016-07-28 02:40:00,52.4,51.3,29.90,SW,219,10.4,10.4,96,0.00,CLR,,0.00,WeatherDisplay:10.37,2016-07-28 09:40:00,
2016-07-28 02:45:00,52.4,51.3,29.90,SW,234,10.0,10.0,96,0.00,CLR,,0.00,WeatherDisplay:10.37,2016-07-28 09:45:00,
2016-07-28 02:50:00,52.4,51.3,29.90,WSW,238,9.2,9.2,96,0.00,CLR,,0.00,WeatherDisplay:10.37,2016-07-28 09:50:00,
2016-07-28 02:55:00,52.5,51.4,29.90,West,269,9.2,9.2,96,0.00,CLR,,0.00,WeatherDisplay:10.37,2016-07-28 09:55:00,
2016-07-28 03:00:00,52.6,51.5,29.90,WSW,250,9.0,9.0,96,0.00,CLR,,0.00,WeatherDisplay:10.37,2016-07-28 10:00:00,
2016-07-28 03:05:00,52.6,51.5,29.90,WSW,240,11.0,11.0,96,0.00,CLR,,0.00,WeatherDisplay:10.37,2016-07-28 10:05:00,
2016-07-28 03:10:00,52.6,51.5,29.90,SW,234,9.2,9.2,96,0.00,CLR,,0.00,WeatherDisplay:10.37,2016-07-28 10:10:00,
2016-07-28 03:15:00,52.6,51.5,29.90,SW,216,9.2,9.2,96,0.00,CLR,,0.00,WeatherDisplay:10.37,2016-07-28 10:15:00,
2016-07-28 03:20:00,52.6,51.5,29.90,SW,232,9.2,9.2,96,0.00,CLR,,0.00,WeatherDisplay:10.37,2016-07-28 10:20:00,
2016-07-28 03:25:00,52.4,51.3,29.90,WSW,240,9.2,9.2,96,0.00,CLR,,0.00,WeatherDisplay:10.37,2016-07-28 10:25:00,
2016-07-28 03:30:00,52.2,51.1,29.90,SW,227,9.2,9.2,96,0.00,CLR,,0.00,WeatherDisplay:10.37,2016-07-28 10:30:00,
2016-07-28 03:35:00,52.1,51.0,29.90,SW,217,11.5,11.5,96,0.00,CLR,,0.00,WeatherDisplay:10.37,2016-07-28 10:35:00,
2016-07-28 03:40:00,52.0,50.9,29.90,SW,229,9.2,9.2,96,0.00,CLR,,0.00,WeatherDisplay:10.37,2016-07-28 10:40:00,
2016-07-28 03:45:00,52.0,50.9,29.90,WSW,250,10.4,10.4,96,0.00,CLR,,0.00,WeatherDisplay:10.37,2016-07-28 10:45:00,
2016-07-28 03:50:00,52.0,50.9,29.90,SW,225,8.1,8.1,96,0.00,CLR,,0.00,WeatherDisplay:10.37,2016-07-28 10:50:00,
2016-07-28 03:55:00,52.1,51.0,29.90,WSW,242,9.0,9.0,96,0.00,CLR,,0.00,WeatherDisplay:10.37,2016-07-28 10:55:00,
2016-07-28 04:00:00,52.1,51.0,29.90,SW,234,10.0,10.0,96,0.00,CLR,,0.00,WeatherDisplay:10.37,2016-07-28 11:00:00,
2016-07-28 04:05:00,52.2,51.1,29.90,WSW,246,10.4,10.4,96,0.00,CLR,,0.00,WeatherDisplay:10.37,2016-07-28 11:05:00,
2016-07-28 04:10:00,52.1,51.0,29.90,WSW,244,9.2,9.2,96,0.00,CLR,,0.00,WeatherDisplay:10.37,2016-07-28 11:10:00,
2016-07-28 04:15:00,52.1,51.0,29.90,West,265,7.0,7.0,96,0.00,CLR,,0.00,WeatherDisplay:10.37,2016-07-28 11:15:00,
2016-07-28 04:20:00,52.2,51.1,29.90,WSW,257,8.1,8.1,96,0.00,CLR,,0.00,WeatherDisplay:10.37,2016-07-28 11:20:00,
2016-07-28 04:30:00,52.3,51.2,29.90,WSW,238,8.0,8.0,96,0.00,CLR,,0.00,WeatherDisplay:10.37,2016-07-28 11:30:00,
2016-07-28 04:35:00,52.3,51.2,29.90,SSW,211,5.8,5.8,96,0.00,CLR,,0.00,WeatherDisplay:10.37,2016-07-28 11:35:00,
2016-07-28 04:40:00,52.4,51.3,29.90,SW,235,8.1,8.1,96,0.00,CLR,,0.00,WeatherDisplay:10.37,2016-07-28 11:40:00,
2016-07-28 04:41:00,52.4,51.3,29.90,SW,227,8.0,8.0,96,0.00,CLR,,0.00,WeatherDisplay:10.37,2016-07-28 11:41:00,
2016-07-28 04:46:00,52.4,51.3,29.90,SW,230,9.2,9.2,96,0.00,CLR,,0.00,WeatherDisplay:10.37,2016-07-28 11:46:00,
2016-07-28 04:51:00,52.4,51.3,29.90,SW,219,8.1,8.1,96,0.00,CLR,,0.00,WeatherDisplay:10.37,2016-07-28 11:51:00,
2016-07-28 04:56:00,52.4,51.3,29.90,WSW,240,10.4,10.4,96,0.00,CLR,,0.00,WeatherDisplay:10.37,2016-07-28 11:56:00,
2016-07-28 05:01:00,52.3,51.2,29.90,WSW,248,10.4,10.4,96,0.00,CLR,,0.00,WeatherDisplay:10.37,2016-07-28 12:01:00,
2016-07-28 05:06:00,52.2,51.1,29.90,WSW,242,9.2,9.2,96,0.00,CLR,,0.00,WeatherDisplay:10.37,2016-07-28 12:06:00,
2016-07-28 05:11:00,52.3,51.2,29.90,West,261,9.2,9.2,96,0.00,CLR,,0.00,WeatherDisplay:10.37,2016-07-28 12:11:00,
2016-07-28 05:16:00,52.4,51.3,29.90,SW,231,11.5,11.5,96,0.00,CLR,,0.00,WeatherDisplay:10.37,2016-07-28 12:16:00,
2016-07-28 05:21:00,52.5,51.4,29.90,WSW,238,9.2,9.2,96,0.00,CLR,,0.00,WeatherDisplay:10.37,2016-07-28 12:21:00,
2016-07-28 05:26:00,52.4,51.3,29.90,West,264,8.1,8.1,96,0.00,CLR,,0.00,WeatherDisplay:10.37,2016-07-28 12:26:00,
2016-07-28 05:31:00,52.4,51.3,29.90,West,264,10.4,10.4,96,0.00,CLR,,0.00,WeatherDisplay:10.37,2016-07-28 12:31:00,
2016-07-28 05:36:00,52.3,51.2,29.90,SW,216,10.0,10.0,96,0.00,CLR,,0.00,WeatherDisplay:10.37,2016-07-28 12:36:00,
2016-07-28 05:41:00,52.3,51.2,29.90,SW,235,11.5,11.5,96,0.00,CLR,,0.00,WeatherDisplay:10.37,2016-07-28 12:41:00,
2016-07-28 05:46:00,52.2,51.1,29.90,WSW,240,9.2,9.2,96,0.00,CLR,,0.00,WeatherDisplay:10.37,2016-07-28 12:46:00,
2016-07-28 05:51:00,52.2,51.1,29.90,SSW,211,10.4,10.4,96,0.00,CLR,,0.00,WeatherDisplay:10.37,2016-07-28 12:51:00,
2016-07-28 05:56:00,52.2,51.1,29.90,SW,225,10.0,10.0,96,0.00,CLR,,0.00,WeatherDisplay:10.37,2016-07-28 12:56:00,
2016-07-28 06:01:00,52.2,51.1,29.90,WNW,286,9.2,9.2,96,0.00,CLR,,0.00,WeatherDisplay:10.37,2016-07-28 13:01:00,
2016-07-28 06:06:00,52.2,51.1,29.90,WSW,254,8.1,8.1,96,0.00,CLR,,0.00,WeatherDisplay:10.37,2016-07-28 13:06:00,
2016-07-28 06:11:00,52.1,51.0,29.90,SW,225,9.2,9.2,96,0.00,CLR,,0.00,WeatherDisplay:10.37,2016-07-28 13:11:00,
2016-07-28 06:16:00,52.2,51.1,29.90,SW,223,10.4,10.4,96,0.00,CLR,,0.00,WeatherDisplay:10.37,2016-07-28 13:16:00,
2016-07-28 06:21:00,52.2,51.1,29.90,SW,236,9.2,9.2,96,0.00,CLR,,0.00,WeatherDisplay:10.37,2016-07-28 13:21:00,
2016-07-28 06:26:00,52.3,51.2,29.90,West,259,11.0,11.0,96,0.00,CLR,,0.00,WeatherDisplay:10.37,2016-07-28 13:26:00,
2016-07-28 06:31:00,52.2,51.1,29.90,WSW,244,9.2,9.2,96,0.00,CLR,,0.00,WeatherDisplay:10.37,2016-07-28 13:31:00,
2016-07-28 06:36:00,52.0,50.9,29.90,WSW,244,9.2,9.2,96,0.00,CLR,,0.00,WeatherDisplay:10.37,2016-07-28 13:36:00,
2016-07-28 06:41:00,52.0,50.9,29.90,WSW,255,9.2,9.2,96,0.00,CLR,,0.00,WeatherDisplay:10.37,2016-07-28 13:41:00,
2016-07-28 06:46:00,52.2,51.1,29.91,SW,234,9.2,9.2,96,0.00,CLR,,0.00,WeatherDisplay:10.37,2016-07-28 13:46:00,
2016-07-28 06:51:00,52.3,51.2,29.91,SW,225,7.0,7.0,96,0.00,CLR,,0.00,WeatherDisplay:10.37,2016-07-28 13:51:00,
2016-07-28 06:56:00,52.4,51.6,29.91,SW,232,9.2,9.2,97,0.00,CLR,,0.00,WeatherDisplay:10.37,2016-07-28 13:56:00,
2016-07-28 07:01:00,52.5,51.7,29.91,SW,234,9.2,9.2,97,0.00,CLR,,0.00,WeatherDisplay:10.37,2016-07-28 14:01:00,
2016-07-28 07:06:00,52.4,51.3,29.91,SW,231,9.2,9.2,96,0.00,CLR,,0.00,WeatherDisplay:10.37,2016-07-28 14:06:00,
2016-07-28 07:11:00,52.1,51.0,29.91,WSW,244,7.0,7.0,96,0.00,CLR,,0.00,WeatherDisplay:10.37,2016-07-28 14:11:00,
2016-07-28 07:16:00,52.1,51.0,29.92,SSW,213,9.2,9.2,96,0.00,CLR,,0.00,WeatherDisplay:10.37,2016-07-28 14:16:00,
2016-07-28 07:21:00,52.2,51.1,29.92,SW,222,9.0,9.0,96,0.00,CLR,,0.00,WeatherDisplay:10.37,2016-07-28 14:21:00,
2016-07-28 07:26:00,52.3,51.2,29.92,SSW,211,9.2,9.2,96,0.00,CLR,,0.00,WeatherDisplay:10.37,2016-07-28 14:26:00,
2016-07-28 07:31:00,52.4,51.6,29.91,SW,232,7.0,7.0,97,0.00,CLR,,0.00,WeatherDisplay:10.37,2016-07-28 14:31:00,
2016-07-28 07:36:00,52.7,51.9,29.91,SW,236,10.4,10.4,97,0.00,CLR,,0.00,WeatherDisplay:10.37,2016-07-28 14:36:00,
2016-07-28 07:41:00,52.6,51.5,29.92,SW,229,9.2,9.2,96,0.00,CLR,,0.00,WeatherDisplay:10.37,2016-07-28 14:41:00,
2016-07-28 07:46:00,52.5,51.4,29.92,West,259,9.2,9.2,96,0.00,CLR,,0.00,WeatherDisplay:10.37,2016-07-28 14:46:00,
2016-07-28 07:51:00,52.5,51.4,29.92,WSW,254,8.1,8.1,96,0.00,CLR,,0.00,WeatherDisplay:10.37,2016-07-28 14:51:00,
2016-07-28 07:56:00,52.5,51.7,29.92,WSW,250,10.4,10.4,97,0.00,CLR,,0.00,WeatherDisplay:10.37,2016-07-28 14:56:00,
2016-07-28 08:01:00,52.7,51.9,29.92,WSW,240,6.9,6.9,97,0.00,CLR,,0.00,WeatherDisplay:10.37,2016-07-28 15:01:00,
2016-07-28 08:06:00,52.8,52.0,29.92,WSW,248,8.1,8.1,97,0.00,CLR,,0.00,WeatherDisplay:10.37,2016-07-28 15:06:00,
2016-07-28 08:11:00,52.8,51.7,29.92,SW,227,9.2,9.2,96,0.00,CLR,,0.00,WeatherDisplay:10.37,2016-07-28 15:11:00,
2016-07-28 08:16:00,52.8,51.7,29.93,WSW,244,8.0,8.0,96,0.00,CLR,,0.00,WeatherDisplay:10.37,2016-07-28 15:16:00,
2016-07-28 08:21:00,52.8,51.7,29.93,WSW,252,4.6,4.6,96,0.00,CLR,,0.00,WeatherDisplay:10.37,2016-07-28 15:21:00,
2016-07-28 08:26:00,52.9,52.1,29.93,WSW,245,6.9,6.9,97,0.00,CLR,,0.00,WeatherDisplay:10.37,2016-07-28 15:26:00,
2016-07-28 08:31:00,53.1,52.3,29.93,SW,222,9.2,9.2,97,0.00,CLR,,0.00,WeatherDisplay:10.37,2016-07-28 15:31:00,
2016-07-28 08:36:00,53.2,52.4,29.93,West,259,7.0,7.0,97,0.00,CLR,,0.00,WeatherDisplay:10.37,2016-07-28 15:36:00,
2016-07-28 08:41:00,53.3,52.5,29.93,SW,227,6.0,6.0,97,0.00,CLR,,0.00,WeatherDisplay:10.37,2016-07-28 15:41:00,
2016-07-28 08:46:00,53.4,52.3,29.93,WSW,246,8.1,8.1,96,0.00,CLR,,0.00,WeatherDisplay:10.37,2016-07-28 15:46:00,
2016-07-28 08:51:00,53.5,52.7,29.93,West,263,5.8,5.8,97,0.00,CLR,,0.00,WeatherDisplay:10.37,2016-07-28 15:51:00,
2016-07-28 08:56:00,53.6,52.8,29.93,West,259,5.0,5.0,97,0.00,CLR,,0.00,WeatherDisplay:10.37,2016-07-28 15:56:00,
2016-07-28 09:01:00,53.7,52.9,29.93,WSW,239,5.0,5.0,97,0.00,CLR,,0.00,WeatherDisplay:10.37,2016-07-28 16:01:00,
2016-07-28 09:06:00,53.9,53.1,29.93,SW,233,8.0,8.0,97,0.00,CLR,,0.00,WeatherDisplay:10.37,2016-07-28 16:06:00,
2016-07-28 09:11:00,53.6,52.5,29.93,WSW,250,8.1,8.1,96,0.00,CLR,,0.00,WeatherDisplay:10.37,2016-07-28 16:11:00,
2016-07-28 09:16:00,53.6,52.5,29.93,WSW,242,6.9,6.9,96,0.00,CLR,,0.00,WeatherDisplay:10.37,2016-07-28 16:16:00,
2016-07-28 09:21:00,53.7,52.9,29.93,SW,230,6.9,6.9,97,0.00,CLR,,0.00,WeatherDisplay:10.37,2016-07-28 16:21:00,
2016-07-28 09:26:00,54.0,53.2,29.93,SW,233,9.2,9.2,97,0.00,CLR,,0.00,WeatherDisplay:10.37,2016-07-28 16:26:00,
2016-07-28 09:31:00,54.4,53.6,29.93,SW,228,8.1,8.1,97,0.00,CLR,,0.00,WeatherDisplay:10.37,2016-07-28 16:31:00,
2016-07-28 09:36:00,54.7,53.9,29.92,SW,219,6.0,6.0,97,0.00,CLR,,0.00,WeatherDisplay:10.37,2016-07-28 16:36:00,
2016-07-28 09:41:00,54.5,53.7,29.92,SW,215,9.2,9.2,97,0.00,CLR,,0.00,WeatherDisplay:10.37,2016-07-28 16:41:00,
2016-07-28 09:46:00,54.4,53.6,29.92,SW,235,5.8,5.8,97,0.00,CLR,,0.00,WeatherDisplay:10.37,2016-07-28 16:46:00,
2016-07-28 09:51:00,54.2,53.1,29.93,SW,221,9.2,9.2,96,0.00,CLR,,0.00,WeatherDisplay:10.37,2016-07-28 16:51:00,
2016-07-28 09:56:00,54.4,53.6,29.92,WSW,242,8.1,8.1,97,0.00,CLR,,0.00,WeatherDisplay:10.37,2016-07-28 16:56:00,
2016-07-28 10:01:00,54.5,53.7,29.93,SW,222,7.0,7.0,97,0.00,CLR,,0.00,WeatherDisplay:10.37,2016-07-28 17:01:00,
2016-07-28 10:06:00,54.5,53.4,29.93,WSW,240,8.1,8.1,96,0.00,CLR,,0.00,WeatherDisplay:10.37,2016-07-28 17:06:00,
2016-07-28 10:11:00,54.5,53.4,29.93,SW,235,8.1,8.1,96,0.00,CLR,,0.00,WeatherDisplay:10.37,2016-07-28 17:11:00,
2016-07-28 10:16:00,54.5,53.4,29.93,SW,236,6.9,6.9,96,0.00,CLR,,0.00,WeatherDisplay:10.37,2016-07-28 17:16:00,
2016-07-28 10:22:00,54.7,53.6,29.93,SSW,205,9.0,9.0,96,0.00,CLR,,0.00,WeatherDisplay:10.37,2016-07-28 17:22:00,
2016-07-28 10:27:00,54.7,53.6,29.93,SW,226,9.2,9.2,96,0.00,CLR,,0.00,WeatherDisplay:10.37,2016-07-28 17:27:00,
2016-07-28 10:32:00,54.8,53.7,29.93,WSW,241,6.9,6.9,96,0.00,CLR,,0.00,WeatherDisplay:10.37,2016-07-28 17:32:00,
2016-07-28 10:37:00,55.0,53.9,29.93,SW,221,8.0,8.0,96,0.00,CLR,,0.00,WeatherDisplay:10.37,2016-07-28 17:37:00,
2016-07-28 10:42:00,55.3,54.2,29.93,SSW,212,9.2,9.2,96,0.00,CLR,,0.00,WeatherDisplay:10.37,2016-07-28 17:42:00,
2016-07-28 10:47:00,55.4,54.3,29.93,SW,222,8.1,8.1,96,0.00,CLR,,0.00,WeatherDisplay:10.37,2016-07-28 17:47:00,
2016-07-28 10:52:00,55.7,54.6,29.93,WSW,240,9.2,9.2,96,0.00,CLR,,0.00,WeatherDisplay:10.37,2016-07-28 17:52:00,
2016-07-28 10:57:00,55.8,54.7,29.93,West,269,9.2,9.2,96,0.00,CLR,,0.00,WeatherDisplay:10.37,2016-07-28 17:57:00,
2016-07-28 11:03:00,56.1,55.0,29.93,WSW,250,9.2,9.2,96,0.00,CLR,,0.00,WeatherDisplay:10.37,2016-07-28 18:03:00,
2016-07-28 11:08:00,56.1,54.7,29.93,SW,236,10.4,10.4,95,0.00,CLR,,0.00,WeatherDisplay:10.37,2016-07-28 18:08:00,
2016-07-28 11:13:00,56.3,54.9,29.93,WSW,252,9.2,9.2,95,0.00,CLR,,0.00,WeatherDisplay:10.37,2016-07-28 18:13:00,
2016-07-28 11:18:00,56.3,54.9,29.93,SW,236,11.0,11.0,95,0.00,CLR,,0.00,WeatherDisplay:10.37,2016-07-28 18:18:00,
2016-07-28 11:23:00,56.6,55.2,29.93,SW,225,9.2,9.2,95,0.00,CLR,,0.00,WeatherDisplay:10.37,2016-07-28 18:23:00,
2016-07-28 11:28:00,56.9,55.2,29.93,WSW,245,9.2,9.2,94,0.00,CLR,,0.00,WeatherDisplay:10.37,2016-07-28 18:28:00,
2016-07-28 11:33:00,56.9,54.9,29.93,SW,219,11.5,11.5,93,0.00,CLR,,0.00,WeatherDisplay:10.37,2016-07-28 18:33:00,
2016-07-28 11:38:00,57.1,55.1,29.93,SW,231,11.5,11.5,93,0.00,CLR,,0.00,WeatherDisplay:10.37,2016-07-28 18:38:00,
2016-07-28 11:43:00,57.2,55.2,29.93,WSW,242,11.0,11.0,93,0.00,CLR,,0.00,WeatherDisplay:10.37,2016-07-28 18:43:00,
2016-07-28 11:48:00,57.6,55.6,29.93,WSW,240,9.2,9.2,93,0.00,CLR,,0.00,WeatherDisplay:10.37,2016-07-28 18:48:00,
2016-07-28 11:53:00,57.9,55.9,29.92,West,280,9.2,9.2,93,0.00,CLR,,0.00,WeatherDisplay:10.37,2016-07-28 18:53:00,
2016-07-28 11:58:00,58.3,56.0,29.93,WSW,238,10.4,10.4,92,0.00,CLR,,0.00,WeatherDisplay:10.37,2016-07-28 18:58:00,
2016-07-28 12:03:00,58.5,55.9,29.92,WSW,258,10.4,10.4,91,0.00,CLR,,0.00,WeatherDisplay:10.37,2016-07-28 19:03:00,
2016-07-28 12:08:00,58.5,55.9,29.92,West,275,11.5,11.5,91,0.00,CLR,,0.00,WeatherDisplay:10.37,2016-07-28 19:08:00,
2016-07-28 12:13:00,58.9,56.3,29.92,WNW,288,8.1,8.1,91,0.00,CLR,,0.00,WeatherDisplay:10.37,2016-07-28 19:13:00,
2016-07-28 12:18:00,59.1,56.2,29.92,West,277,11.5,11.5,90,0.00,CLR,,0.00,WeatherDisplay:10.37,2016-07-28 19:18:00,
2016-07-28 12:24:00,59.5,56.3,29.92,SW,215,9.2,9.2,89,0.00,CLR,,0.00,WeatherDisplay:10.37,2016-07-28 19:24:00,
2016-07-28 12:29:00,59.5,56.3,29.92,WSW,248,10.4,10.4,89,0.00,CLR,,0.00,WeatherDisplay:10.37,2016-07-28 19:29:00,
2016-07-28 12:34:00,59.5,56.3,29.92,WSW,256,10.4,10.4,89,0.00,CLR,,0.00,WeatherDisplay:10.37,2016-07-28 19:34:00,
2016-07-28 12:39:00,59.5,55.9,29.92,SW,227,11.0,11.0,88,0.00,CLR,,0.00,WeatherDisplay:10.37,2016-07-28 19:39:00,
2016-07-28 12:44:00,59.4,55.8,29.92,SW,224,10.4,10.4,88,0.00,CLR,,0.00,WeatherDisplay:10.37,2016-07-28 19:44:00,
2016-07-28 12:49:00,59.4,55.8,29.92,WSW,244,10.4,10.4,88,0.00,CLR,,0.00,WeatherDisplay:10.37,2016-07-28 19:49:00,
2016-07-28 12:54:00,59.9,56.3,29.92,West,259,9.2,9.2,88,0.00,CLR,,0.00,WeatherDisplay:10.37,2016-07-28 19:54:00,
2016-07-28 12:59:00,60.1,56.2,29.92,WSW,238,11.5,11.5,87,0.00,CLR,,0.00,WeatherDisplay:10.37,2016-07-28 19:59:00,
2016-07-28 13:04:00,59.9,56.0,29.92,SW,236,9.0,9.0,87,0.00,CLR,,0.00,WeatherDisplay:10.37,2016-07-28 20:04:00,
2016-07-28 13:09:00,60.3,56.4,29.92,WSW,248,9.2,9.2,87,0.00,CLR,,0.00,WeatherDisplay:10.37,2016-07-28 20:09:00,
2016-07-28 13:14:00,60.2,56.0,29.92,SW,236,11.5,11.5,86,0.00,CLR,,0.00,WeatherDisplay:10.37,2016-07-28 20:14:00,
2016-07-28 13:19:00,60.3,56.1,29.91,SW,227,10.0,10.0,86,0.00,CLR,,0.00,WeatherDisplay:10.37,2016-07-28 20:19:00,
2016-07-28 13:24:00,60.5,56.3,29.91,WSW,246,9.2,9.2,86,0.00,CLR,,0.00,WeatherDisplay:10.37,2016-07-28 20:24:00,
2016-07-28 13:29:00,60.6,56.4,29.91,West,269,11.5,11.5,86,0.01,RA,,0.01,WeatherDisplay:10.37,2016-07-28 20:29:00,
2016-07-28 13:34:00,60.8,56.3,29.91,WSW,247,10.4,10.4,85,0.01,RA,,0.01,WeatherDisplay:10.37,2016-07-28 20:34:00,
2016-07-28 13:39:00,60.4,55.5,29.91,SW,217,11.5,11.5,84,0.01,CLR,,0.01,WeatherDisplay:10.37,2016-07-28 20:39:00,
2016-07-28 13:44:00,60.3,55.8,29.91,SW,227,11.5,11.5,85,0.01,CLR,,0.01,WeatherDisplay:10.37,2016-07-28 20:44:00,
2016-07-28 13:49:00,59.9,55.4,29.91,West,260,11.5,11.5,85,0.01,CLR,,0.01,WeatherDisplay:10.37,2016-07-28 20:49:00,